sensor_id;sensor_type;location;lat;lon;timestamp;P1;durP1;ratioP1;P2;durP2;ratioP2
27305;SDS011;14792;50.886;6.468;2023-07-28T00:01:48;3.05;;;1.62;;
27305;SDS011;14792;50.886;6.468;2023-07-28T00:04:50;3.90;;;1.70;;
27305;SDS011;14792;50.886;6.468;2023-07-28T00:07:51;3.40;;;1.70;;
27305;SDS011;14792;50.886;6.468;2023-07-28T00:10:53;5.00;;;1.62;;
27305;SDS011;14792;50.886;6.468;2023-07-28T00:13:54;3.77;;;1.65;;
27305;SDS011;14792;50.886;6.468;2023-07-28T00:16:56;3.25;;;1.87;;
27305;SDS011;14792;50.886;6.468;2023-07-28T00:19:58;4.58;;;1.65;;
27305;SDS011;14792;50.886;6.468;2023-07-28T00:22:59;4.33;;;1.62;;
27305;SDS011;14792;50.886;6.468;2023-07-28T00:26:01;5.50;;;2.00;;
27305;SDS011;14792;50.886;6.468;2023-07-28T00:29:05;4.28;;;1.77;;
27305;SDS011;14792;50.886;6.468;2023-07-28T00:32:06;2.77;;;1.50;;
27305;SDS011;14792;50.886;6.468;2023-07-28T00:35:08;2.77;;;1.52;;
27305;SDS011;14792;50.886;6.468;2023-07-28T00:38:09;3.42;;;1.50;;
27305;SDS011;14792;50.886;6.468;2023-07-28T00:41:11;3.58;;;1.52;;
27305;SDS011;14792;50.886;6.468;2023-07-28T00:44:13;4.70;;;1.50;;
27305;SDS011;14792;50.886;6.468;2023-07-28T00:47:14;3.20;;;1.65;;
27305;SDS011;14792;50.886;6.468;2023-07-28T00:50:16;3.83;;;1.62;;
27305;SDS011;14792;50.886;6.468;2023-07-28T00:53:18;5.35;;;1.50;;
27305;SDS011;14792;50.886;6.468;2023-07-28T00:56:19;2.30;;;1.45;;
27305;SDS011;14792;50.886;6.468;2023-07-28T00:59:21;3.80;;;1.50;;
27305;SDS011;14792;50.886;6.468;2023-07-28T01:02:22;7.00;;;2.05;;
27305;SDS011;14792;50.886;6.468;2023-07-28T01:05:26;3.58;;;1.65;;
27305;SDS011;14792;50.886;6.468;2023-07-28T01:11:30;3.22;;;1.87;;
27305;SDS011;14792;50.886;6.468;2023-07-28T01:14:32;5.42;;;2.47;;
27305;SDS011;14792;50.886;6.468;2023-07-28T01:17:35;7.45;;;2.20;;
27305;SDS011;14792;50.886;6.468;2023-07-28T01:20:37;6.53;;;2.40;;
27305;SDS011;14792;50.886;6.468;2023-07-28T01:23:44;4.62;;;2.00;;
27305;SDS011;14792;50.886;6.468;2023-07-28T01:26:46;3.05;;;2.10;;
27305;SDS011;14792;50.886;6.468;2023-07-28T01:29:47;5.72;;;2.10;;
27305;SDS011;14792;50.886;6.468;2023-07-28T01:32:49;6.25;;;2.42;;
27305;SDS011;14792;50.886;6.468;2023-07-28T01:35:50;4.62;;;2.10;;
27305;SDS011;14792;50.886;6.468;2023-07-28T01:38:52;5.62;;;2.02;;
27305;SDS011;14792;50.886;6.468;2023-07-28T01:41:53;11.35;;;2.58;;
27305;SDS011;14792;50.886;6.468;2023-07-28T01:44:55;9.30;;;2.20;;
27305;SDS011;14792;50.886;6.468;2023-07-28T01:47:57;8.88;;;2.55;;
27305;SDS011;14792;50.886;6.468;2023-07-28T01:50:58;7.72;;;1.98;;
27305;SDS011;14792;50.886;6.468;2023-07-28T01:54:00;6.20;;;1.82;;
27305;SDS011;14792;50.886;6.468;2023-07-28T01:57:01;6.35;;;3.50;;
27305;SDS011;14792;50.886;6.468;2023-07-28T02:00:05;8.05;;;3.22;;
27305;SDS011;14792;50.886;6.468;2023-07-28T02:03:07;5.33;;;2.15;;
27305;SDS011;14792;50.886;6.468;2023-07-28T02:06:08;4.87;;;2.95;;
27305;SDS011;14792;50.886;6.468;2023-07-28T02:09:10;5.60;;;2.58;;
27305;SDS011;14792;50.886;6.468;2023-07-28T02:12:12;5.58;;;2.30;;
27305;SDS011;14792;50.886;6.468;2023-07-28T02:15:13;10.20;;;3.45;;
27305;SDS011;14792;50.886;6.468;2023-07-28T02:18:15;3.77;;;2.12;;
27305;SDS011;14792;50.886;6.468;2023-07-28T02:21:16;3.60;;;2.12;;
27305;SDS011;14792;50.886;6.468;2023-07-28T02:24:18;6.75;;;2.40;;
27305;SDS011;14792;50.886;6.468;2023-07-28T02:27:19;7.17;;;2.40;;
27305;SDS011;14792;50.886;6.468;2023-07-28T02:30:21;3.72;;;2.30;;
27305;SDS011;14792;50.886;6.468;2023-07-28T02:33:23;3.15;;;2.25;;
27305;SDS011;14792;50.886;6.468;2023-07-28T02:36:24;4.85;;;2.52;;
27305;SDS011;14792;50.886;6.468;2023-07-28T02:39:26;10.63;;;3.10;;
27305;SDS011;14792;50.886;6.468;2023-07-28T02:42:27;8.25;;;2.42;;
27305;SDS011;14792;50.886;6.468;2023-07-28T02:45:29;10.08;;;2.92;;
27305;SDS011;14792;50.886;6.468;2023-07-28T02:48:31;6.25;;;3.02;;
27305;SDS011;14792;50.886;6.468;2023-07-28T02:51:33;7.20;;;3.20;;
27305;SDS011;14792;50.886;6.468;2023-07-28T02:54:36;6.97;;;3.25;;
27305;SDS011;14792;50.886;6.468;2023-07-28T02:57:38;7.00;;;3.20;;
27305;SDS011;14792;50.886;6.468;2023-07-28T03:00:40;8.50;;;3.08;;
27305;SDS011;14792;50.886;6.468;2023-07-28T03:03:41;7.67;;;3.70;;
27305;SDS011;14792;50.886;6.468;2023-07-28T03:06:43;5.95;;;3.27;;
27305;SDS011;14792;50.886;6.468;2023-07-28T03:09:44;6.97;;;3.70;;
27305;SDS011;14792;50.886;6.468;2023-07-28T03:12:46;9.05;;;3.70;;
27305;SDS011;14792;50.886;6.468;2023-07-28T03:15:48;13.68;;;4.53;;
27305;SDS011;14792;50.886;6.468;2023-07-28T03:18:49;10.10;;;3.98;;
27305;SDS011;14792;50.886;6.468;2023-07-28T03:21:51;8.43;;;4.42;;
27305;SDS011;14792;50.886;6.468;2023-07-28T03:24:52;11.05;;;4.10;;
27305;SDS011;14792;50.886;6.468;2023-07-28T03:27:54;6.97;;;3.83;;
27305;SDS011;14792;50.886;6.468;2023-07-28T03:30:56;11.03;;;3.92;;
27305;SDS011;14792;50.886;6.468;2023-07-28T03:33:57;7.90;;;4.05;;
27305;SDS011;14792;50.886;6.468;2023-07-28T03:36:59;9.50;;;3.90;;
27305;SDS011;14792;50.886;6.468;2023-07-28T03:40:00;9.63;;;3.95;;
27305;SDS011;14792;50.886;6.468;2023-07-28T03:43:02;8.93;;;4.30;;
27305;SDS011;14792;50.886;6.468;2023-07-28T03:46:06;6.12;;;4.20;;
27305;SDS011;14792;50.886;6.468;2023-07-28T03:49:08;7.65;;;3.67;;
27305;SDS011;14792;50.886;6.468;2023-07-28T03:52:09;10.20;;;4.17;;
27305;SDS011;14792;50.886;6.468;2023-07-28T03:55:11;9.43;;;3.90;;
27305;SDS011;14792;50.886;6.468;2023-07-28T03:58:13;6.10;;;3.33;;
27305;SDS011;14792;50.886;6.468;2023-07-28T04:01:14;6.42;;;3.50;;
27305;SDS011;14792;50.886;6.468;2023-07-28T04:04:16;5.67;;;3.33;;
27305;SDS011;14792;50.886;6.468;2023-07-28T04:07:17;5.92;;;3.65;;
27305;SDS011;14792;50.886;6.468;2023-07-28T04:10:19;9.18;;;3.95;;
27305;SDS011;14792;50.886;6.468;2023-07-28T04:13:21;4.80;;;3.20;;
27305;SDS011;14792;50.886;6.468;2023-07-28T04:16:22;8.43;;;3.40;;
27305;SDS011;14792;50.886;6.468;2023-07-28T04:19:24;6.58;;;3.10;;
27305;SDS011;14792;50.886;6.468;2023-07-28T04:22:26;4.08;;;2.35;;
27305;SDS011;14792;50.886;6.468;2023-07-28T04:25:27;5.90;;;2.40;;
27305;SDS011;14792;50.886;6.468;2023-07-28T04:28:28;6.53;;;2.10;;
27305;SDS011;14792;50.886;6.468;2023-07-28T04:31:30;6.45;;;2.42;;
27305;SDS011;14792;50.886;6.468;2023-07-28T04:34:35;5.75;;;2.10;;
27305;SDS011;14792;50.886;6.468;2023-07-28T04:37:37;5.12;;;2.25;;
27305;SDS011;14792;50.886;6.468;2023-07-28T04:40:38;4.08;;;2.10;;
27305;SDS011;14792;50.886;6.468;2023-07-28T04:43:40;5.72;;;2.60;;
27305;SDS011;14792;50.886;6.468;2023-07-28T04:46:41;4.78;;;2.33;;
27305;SDS011;14792;50.886;6.468;2023-07-28T04:49:43;6.78;;;2.25;;
27305;SDS011;14792;50.886;6.468;2023-07-28T04:52:45;7.65;;;2.40;;
27305;SDS011;14792;50.886;6.468;2023-07-28T04:55:46;6.78;;;2.00;;
27305;SDS011;14792;50.886;6.468;2023-07-28T04:58:48;3.70;;;2.30;;
27305;SDS011;14792;50.886;6.468;2023-07-28T05:01:49;4.72;;;2.22;;
27305;SDS011;14792;50.886;6.468;2023-07-28T05:04:51;4.62;;;1.82;;
27305;SDS011;14792;50.886;6.468;2023-07-28T05:07:52;4.45;;;1.70;;
27305;SDS011;14792;50.886;6.468;2023-07-28T05:10:55;4.55;;;1.87;;
27305;SDS011;14792;50.886;6.468;2023-07-28T05:13:56;3.40;;;1.55;;
27305;SDS011;14792;50.886;6.468;2023-07-28T05:16:57;3.30;;;1.45;;
27305;SDS011;14792;50.886;6.468;2023-07-28T05:19:59;3.12;;;1.22;;
27305;SDS011;14792;50.886;6.468;2023-07-28T05:23:01;2.55;;;1.50;;
27305;SDS011;14792;50.886;6.468;2023-07-28T05:26:02;5.22;;;1.22;;
27305;SDS011;14792;50.886;6.468;2023-07-28T05:29:06;2.77;;;1.12;;
27305;SDS011;14792;50.886;6.468;2023-07-28T05:32:08;1.82;;;1.10;;
27305;SDS011;14792;50.886;6.468;2023-07-28T05:35:10;3.90;;;1.20;;
27305;SDS011;14792;50.886;6.468;2023-07-28T05:38:11;2.12;;;1.10;;
27305;SDS011;14792;50.886;6.468;2023-07-28T05:41:13;2.00;;;1.10;;
27305;SDS011;14792;50.886;6.468;2023-07-28T05:44:15;1.55;;;1.25;;
27305;SDS011;14792;50.886;6.468;2023-07-28T05:47:16;1.82;;;1.32;;
27305;SDS011;14792;50.886;6.468;2023-07-28T05:50:18;2.15;;;1.60;;
27305;SDS011;14792;50.886;6.468;2023-07-28T05:53:22;3.85;;;1.45;;
27305;SDS011;14792;50.886;6.468;2023-07-28T05:56:21;2.85;;;1.50;;
27305;SDS011;14792;50.886;6.468;2023-07-28T05:59:23;6.22;;;1.60;;
27305;SDS011;14792;50.886;6.468;2023-07-28T06:02:24;2.52;;;1.77;;
27305;SDS011;14792;50.886;6.468;2023-07-28T06:05:26;5.33;;;2.08;;
27305;SDS011;14792;50.886;6.468;2023-07-28T06:08:27;6.42;;;2.40;;
27305;SDS011;14792;50.886;6.468;2023-07-28T06:11:29;6.05;;;2.83;;
27305;SDS011;14792;50.886;6.468;2023-07-28T06:14:31;9.58;;;2.80;;
27305;SDS011;14792;50.886;6.468;2023-07-28T06:17:32;5.08;;;3.25;;
27305;SDS011;14792;50.886;6.468;2023-07-28T06:20:36;4.22;;;3.17;;
27305;SDS011;14792;50.886;6.468;2023-07-28T06:23:38;6.10;;;3.55;;
27305;SDS011;14792;50.886;6.468;2023-07-28T06:26:39;7.78;;;3.85;;
27305;SDS011;14792;50.886;6.468;2023-07-28T06:29:41;4.87;;;3.75;;
27305;SDS011;14792;50.886;6.468;2023-07-28T06:32:43;4.92;;;3.90;;
27305;SDS011;14792;50.886;6.468;2023-07-28T06:35:44;5.45;;;3.95;;
27305;SDS011;14792;50.886;6.468;2023-07-28T06:38:46;6.20;;;3.98;;
27305;SDS011;14792;50.886;6.468;2023-07-28T06:41:47;6.67;;;3.50;;
27305;SDS011;14792;50.886;6.468;2023-07-28T06:44:49;6.25;;;3.67;;
27305;SDS011;14792;50.886;6.468;2023-07-28T06:47:51;4.78;;;3.10;;
27305;SDS011;14792;50.886;6.468;2023-07-28T06:50:52;4.85;;;2.67;;
27305;SDS011;14792;50.886;6.468;2023-07-28T06:53:54;4.15;;;2.50;;
27305;SDS011;14792;50.886;6.468;2023-07-28T06:56:55;4.28;;;2.77;;
27305;SDS011;14792;50.886;6.468;2023-07-28T06:59:57;5.17;;;2.62;;
27305;SDS011;14792;50.886;6.468;2023-07-28T07:02:58;3.65;;;2.35;;
27305;SDS011;14792;50.886;6.468;2023-07-28T07:06:00;2.62;;;2.17;;
27305;SDS011;14792;50.886;6.468;2023-07-28T07:09:02;2.72;;;2.30;;
27305;SDS011;14792;50.886;6.468;2023-07-28T07:12:05;3.05;;;2.17;;
27305;SDS011;14792;50.886;6.468;2023-07-28T07:15:07;5.90;;;2.10;;
27305;SDS011;14792;50.886;6.468;2023-07-28T07:18:08;3.77;;;2.45;;
27305;SDS011;14792;50.886;6.468;2023-07-28T07:21:10;3.47;;;1.95;;
27305;SDS011;14792;50.886;6.468;2023-07-28T07:24:12;3.87;;;2.20;;
27305;SDS011;14792;50.886;6.468;2023-07-28T07:27:16;5.00;;;2.30;;
27305;SDS011;14792;50.886;6.468;2023-07-28T07:30:18;4.95;;;1.80;;
27305;SDS011;14792;50.886;6.468;2023-07-28T07:33:19;3.15;;;1.90;;
27305;SDS011;14792;50.886;6.468;2023-07-28T07:36:21;1.60;;;1.47;;
27305;SDS011;14792;50.886;6.468;2023-07-28T07:39:22;2.20;;;1.77;;
27305;SDS011;14792;50.886;6.468;2023-07-28T07:42:24;2.35;;;1.65;;
27305;SDS011;14792;50.886;6.468;2023-07-28T07:45:26;3.90;;;1.60;;
27305;SDS011;14792;50.886;6.468;2023-07-28T07:48:27;7.12;;;1.55;;
27305;SDS011;14792;50.886;6.468;2023-07-28T07:51:29;3.35;;;1.50;;
27305;SDS011;14792;50.886;6.468;2023-07-28T07:54:30;7.25;;;1.65;;
27305;SDS011;14792;50.886;6.468;2023-07-28T07:57:32;1.30;;;1.20;;
27305;SDS011;14792;50.886;6.468;2023-07-28T08:00:37;4.10;;;1.40;;
27305;SDS011;14792;50.886;6.468;2023-07-28T08:03:38;2.50;;;1.40;;
27305;SDS011;14792;50.886;6.468;2023-07-28T08:06:39;1.35;;;0.98;;
27305;SDS011;14792;50.886;6.468;2023-07-28T08:09:41;2.83;;;1.10;;
27305;SDS011;14792;50.886;6.468;2023-07-28T08:12:43;2.35;;;1.20;;
27305;SDS011;14792;50.886;6.468;2023-07-28T08:15:44;2.10;;;1.00;;
27305;SDS011;14792;50.886;6.468;2023-07-28T08:18:45;3.95;;;1.35;;
27305;SDS011;14792;50.886;6.468;2023-07-28T08:21:47;3.25;;;1.20;;
27305;SDS011;14792;50.886;6.468;2023-07-28T08:24:48;2.27;;;1.20;;
27305;SDS011;14792;50.886;6.468;2023-07-28T08:27:50;2.62;;;1.25;;
27305;SDS011;14792;50.886;6.468;2023-07-28T08:30:55;6.20;;;1.30;;
27305;SDS011;14792;50.886;6.468;2023-07-28T08:33:56;2.70;;;1.10;;
27305;SDS011;14792;50.886;6.468;2023-07-28T08:36:58;2.08;;;0.90;;
27305;SDS011;14792;50.886;6.468;2023-07-28T08:39:59;3.30;;;0.90;;
27305;SDS011;14792;50.886;6.468;2023-07-28T08:43:01;1.50;;;0.98;;
27305;SDS011;14792;50.886;6.468;2023-07-28T08:46:02;1.52;;;0.80;;
27305;SDS011;14792;50.886;6.468;2023-07-28T08:49:07;1.85;;;0.88;;
27305;SDS011;14792;50.886;6.468;2023-07-28T08:52:08;1.57;;;0.90;;
27305;SDS011;14792;50.886;6.468;2023-07-28T08:55:10;2.22;;;0.80;;
27305;SDS011;14792;50.886;6.468;2023-07-28T08:58:18;2.95;;;0.80;;
27305;SDS011;14792;50.886;6.468;2023-07-28T09:01:22;1.85;;;0.60;;
27305;SDS011;14792;50.886;6.468;2023-07-28T09:04:21;3.27;;;0.62;;
27305;SDS011;14792;50.886;6.468;2023-07-28T09:07:22;2.47;;;0.80;;
27305;SDS011;14792;50.886;6.468;2023-07-28T09:10:24;2.40;;;0.72;;
27305;SDS011;14792;50.886;6.468;2023-07-28T09:13:25;2.37;;;0.50;;
27305;SDS011;14792;50.886;6.468;2023-07-28T09:16:27;1.20;;;0.40;;
27305;SDS011;14792;50.886;6.468;2023-07-28T09:19:28;0.90;;;0.68;;
27305;SDS011;14792;50.886;6.468;2023-07-28T09:22:30;1.02;;;0.45;;
27305;SDS011;14792;50.886;6.468;2023-07-28T09:25:32;0.40;;;0.40;;
27305;SDS011;14792;50.886;6.468;2023-07-28T09:28:39;1.32;;;0.60;;
27305;SDS011;14792;50.886;6.468;2023-07-28T09:31:41;0.60;;;0.60;;
27305;SDS011;14792;50.886;6.468;2023-07-28T09:34:42;1.10;;;0.55;;
27305;SDS011;14792;50.886;6.468;2023-07-28T09:37:44;1.00;;;0.47;;
27305;SDS011;14792;50.886;6.468;2023-07-28T09:40:45;2.15;;;0.53;;
27305;SDS011;14792;50.886;6.468;2023-07-28T09:43:47;2.72;;;0.53;;
27305;SDS011;14792;50.886;6.468;2023-07-28T09:46:49;3.45;;;0.80;;
27305;SDS011;14792;50.886;6.468;2023-07-28T09:49:53;0.50;;;0.50;;
27305;SDS011;14792;50.886;6.468;2023-07-28T09:52:56;0.93;;;0.45;;
27305;SDS011;14792;50.886;6.468;2023-07-28T09:55:56;0.98;;;0.50;;
27305;SDS011;14792;50.886;6.468;2023-07-28T09:58:58;2.30;;;0.45;;
27305;SDS011;14792;50.886;6.468;2023-07-28T10:02:01;0.72;;;0.40;;
27305;SDS011;14792;50.886;6.468;2023-07-28T10:05:03;0.55;;;0.50;;
27305;SDS011;14792;50.886;6.468;2023-07-28T10:08:08;2.00;;;0.68;;
27305;SDS011;14792;50.886;6.468;2023-07-28T10:11:10;2.95;;;1.07;;
27305;SDS011;14792;50.886;6.468;2023-07-28T10:14:11;2.47;;;0.70;;
27305;SDS011;14792;50.886;6.468;2023-07-28T10:17:15;1.95;;;0.45;;
27305;SDS011;14792;50.886;6.468;2023-07-28T10:23:35;4.37;;;0.72;;
27305;SDS011;14792;50.886;6.468;2023-07-28T10:26:39;0.70;;;0.57;;
27305;SDS011;14792;50.886;6.468;2023-07-28T10:29:55;0.90;;;0.40;;
27305;SDS011;14792;50.886;6.468;2023-07-28T10:32:48;1.75;;;0.62;;
27305;SDS011;14792;50.886;6.468;2023-07-28T10:35:47;1.55;;;0.40;;
27305;SDS011;14792;50.886;6.468;2023-07-28T10:39:02;0.28;;;0.28;;
27305;SDS011;14792;50.886;6.468;2023-07-28T10:42:07;0.70;;;0.30;;
27305;SDS011;14792;50.886;6.468;2023-07-28T10:45:07;0.95;;;0.47;;
27305;SDS011;14792;50.886;6.468;2023-07-28T10:48:09;0.82;;;0.50;;
27305;SDS011;14792;50.886;6.468;2023-07-28T10:51:11;0.53;;;0.33;;
27305;SDS011;14792;50.886;6.468;2023-07-28T10:54:12;1.27;;;0.75;;
27305;SDS011;14792;50.886;6.468;2023-07-28T10:57:16;0.80;;;0.30;;
27305;SDS011;14792;50.886;6.468;2023-07-28T11:00:18;0.20;;;0.20;;
27305;SDS011;14792;50.886;6.468;2023-07-28T11:03:19;1.15;;;0.45;;
27305;SDS011;14792;50.886;6.468;2023-07-28T11:06:21;1.45;;;0.40;;
27305;SDS011;14792;50.886;6.468;2023-07-28T11:09:23;1.20;;;0.20;;
27305;SDS011;14792;50.886;6.468;2023-07-28T11:12:24;3.85;;;0.80;;
27305;SDS011;14792;50.886;6.468;2023-07-28T11:15:26;1.80;;;0.40;;
27305;SDS011;14792;50.886;6.468;2023-07-28T11:18:27;0.30;;;0.30;;
27305;SDS011;14792;50.886;6.468;2023-07-28T11:21:29;0.95;;;0.45;;
27305;SDS011;14792;50.886;6.468;2023-07-28T11:24:31;0.95;;;0.57;;
27305;SDS011;14792;50.886;6.468;2023-07-28T11:27:32;1.22;;;0.50;;
27305;SDS011;14792;50.886;6.468;2023-07-28T11:30:36;1.92;;;0.65;;
27305;SDS011;14792;50.886;6.468;2023-07-28T11:33:37;1.55;;;0.33;;
27305;SDS011;14792;50.886;6.468;2023-07-28T11:36:38;0.30;;;0.30;;
27305;SDS011;14792;50.886;6.468;2023-07-28T11:39:40;4.70;;;0.80;;
27305;SDS011;14792;50.886;6.468;2023-07-28T11:42:45;2.58;;;0.65;;
27305;SDS011;14792;50.886;6.468;2023-07-28T11:45:49;0.65;;;0.45;;
27305;SDS011;14792;50.886;6.468;2023-07-28T11:48:51;2.75;;;0.72;;
27305;SDS011;14792;50.886;6.468;2023-07-28T11:51:54;1.77;;;0.80;;
27305;SDS011;14792;50.886;6.468;2023-07-28T11:54:54;2.00;;;0.88;;
27305;SDS011;14792;50.886;6.468;2023-07-28T11:57:55;0.70;;;0.50;;
27305;SDS011;14792;50.886;6.468;2023-07-28T12:00:57;0.93;;;0.45;;
27305;SDS011;14792;50.886;6.468;2023-07-28T12:03:59;0.42;;;0.42;;
27305;SDS011;14792;50.886;6.468;2023-07-28T12:07:07;0.50;;;0.50;;
27305;SDS011;14792;50.886;6.468;2023-07-28T12:10:13;0.70;;;0.42;;
27305;SDS011;14792;50.886;6.468;2023-07-28T12:13:15;1.77;;;0.78;;
27305;SDS011;14792;50.886;6.468;2023-07-28T12:16:39;2.30;;;0.70;;
27305;SDS011;14792;50.886;6.468;2023-07-28T12:20:23;3.25;;;0.42;;
27305;SDS011;14792;50.886;6.468;2023-07-28T12:22:57;2.80;;;0.70;;
27305;SDS011;14792;50.886;6.468;2023-07-28T12:25:59;0.30;;;0.30;;
27305;SDS011;14792;50.886;6.468;2023-07-28T12:29:00;0.60;;;0.60;;
27305;SDS011;14792;50.886;6.468;2023-07-28T12:32:02;1.32;;;0.55;;
27305;SDS011;14792;50.886;6.468;2023-07-28T12:35:05;1.00;;;0.50;;
27305;SDS011;14792;50.886;6.468;2023-07-28T12:38:07;2.70;;;0.75;;
27305;SDS011;14792;50.886;6.468;2023-07-28T12:41:08;1.47;;;0.80;;
27305;SDS011;14792;50.886;6.468;2023-07-28T12:44:10;3.00;;;0.50;;
27305;SDS011;14792;50.886;6.468;2023-07-28T12:47:12;1.55;;;0.60;;
27305;SDS011;14792;50.886;6.468;2023-07-28T12:50:13;3.40;;;0.45;;
27305;SDS011;14792;50.886;6.468;2023-07-28T12:53:15;2.12;;;0.50;;
27305;SDS011;14792;50.886;6.468;2023-07-28T12:56:16;4.00;;;0.80;;
27305;SDS011;14792;50.886;6.468;2023-07-28T12:59:18;1.77;;;0.55;;
27305;SDS011;14792;50.886;6.468;2023-07-28T13:02:20;1.10;;;0.53;;
27305;SDS011;14792;50.886;6.468;2023-07-28T13:05:21;0.37;;;0.10;;
27305;SDS011;14792;50.886;6.468;2023-07-28T13:08:23;0.23;;;0.10;;
27305;SDS011;14792;50.886;6.468;2023-07-28T13:11:24;0.53;;;0.50;;
27305;SDS011;14792;50.886;6.468;2023-07-28T13:14:26;0.37;;;0.30;;
27305;SDS011;14792;50.886;6.468;2023-07-28T13:17:27;0.30;;;0.20;;
27305;SDS011;14792;50.886;6.468;2023-07-28T13:20:29;0.20;;;0.20;;
27305;SDS011;14792;50.886;6.468;2023-07-28T13:23:31;0.20;;;0.20;;
27305;SDS011;14792;50.886;6.468;2023-07-28T13:26:32;1.65;;;0.42;;
27305;SDS011;14792;50.886;6.468;2023-07-28T13:29:36;2.70;;;0.33;;
27305;SDS011;14792;50.886;6.468;2023-07-28T13:32:37;3.47;;;0.25;;
27305;SDS011;14792;50.886;6.468;2023-07-28T13:35:39;2.05;;;0.47;;
27305;SDS011;14792;50.886;6.468;2023-07-28T13:38:41;0.17;;;0.17;;
27305;SDS011;14792;50.886;6.468;2023-07-28T13:41:42;0.53;;;0.30;;
27305;SDS011;14792;50.886;6.468;2023-07-28T13:44:44;2.00;;;0.30;;
27305;SDS011;14792;50.886;6.468;2023-07-28T13:47:45;0.47;;;0.20;;
27305;SDS011;14792;50.886;6.468;2023-07-28T13:50:47;0.62;;;0.40;;
27305;SDS011;14792;50.886;6.468;2023-07-28T13:53:48;1.07;;;0.60;;
27305;SDS011;14792;50.886;6.468;2023-07-28T13:56:50;1.05;;;0.57;;
27305;SDS011;14792;50.886;6.468;2023-07-28T13:59:52;1.30;;;0.70;;
27305;SDS011;14792;50.886;6.468;2023-07-28T14:02:53;0.88;;;0.42;;
27305;SDS011;14792;50.886;6.468;2023-07-28T14:05:55;0.65;;;0.50;;
27305;SDS011;14792;50.886;6.468;2023-07-28T14:08:56;0.65;;;0.40;;
27305;SDS011;14792;50.886;6.468;2023-07-28T14:11:58;1.85;;;1.05;;
27305;SDS011;14792;50.886;6.468;2023-07-28T14:15:00;1.57;;;0.50;;
27305;SDS011;14792;50.886;6.468;2023-07-28T14:18:01;2.80;;;0.55;;
27305;SDS011;14792;50.886;6.468;2023-07-28T14:21:03;0.53;;;0.40;;
27305;SDS011;14792;50.886;6.468;2023-07-28T14:24:06;0.40;;;0.35;;
27305;SDS011;14792;50.886;6.468;2023-07-28T14:27:08;1.22;;;0.60;;
27305;SDS011;14792;50.886;6.468;2023-07-28T14:30:10;2.92;;;0.72;;
27305;SDS011;14792;50.886;6.468;2023-07-28T14:33:14;1.37;;;0.50;;
27305;SDS011;14792;50.886;6.468;2023-07-28T14:36:16;2.72;;;0.30;;
27305;SDS011;14792;50.886;6.468;2023-07-28T14:42:38;0.20;;;0.20;;
27305;SDS011;14792;50.886;6.468;2023-07-28T14:45:40;1.55;;;0.60;;
27305;SDS011;14792;50.886;6.468;2023-07-28T14:48:42;4.30;;;0.35;;
27305;SDS011;14792;50.886;6.468;2023-07-28T14:51:43;2.17;;;0.30;;
27305;SDS011;14792;50.886;6.468;2023-07-28T14:54:45;0.80;;;0.37;;
27305;SDS011;14792;50.886;6.468;2023-07-28T14:57:46;0.45;;;0.23;;
27305;SDS011;14792;50.886;6.468;2023-07-28T15:00:48;1.85;;;0.28;;
27305;SDS011;14792;50.886;6.468;2023-07-28T15:03:50;0.40;;;0.40;;
27305;SDS011;14792;50.886;6.468;2023-07-28T15:06:51;0.50;;;0.50;;
27305;SDS011;14792;50.886;6.468;2023-07-28T15:09:53;1.10;;;0.53;;
27305;SDS011;14792;50.886;6.468;2023-07-28T15:12:54;1.60;;;0.50;;
27305;SDS011;14792;50.886;6.468;2023-07-28T15:15:56;2.50;;;0.47;;
27305;SDS011;14792;50.886;6.468;2023-07-28T15:18:57;0.55;;;0.37;;
27305;SDS011;14792;50.886;6.468;2023-07-28T15:21:59;0.53;;;0.53;;
27305;SDS011;14792;50.886;6.468;2023-07-28T15:25:01;1.32;;;0.60;;
27305;SDS011;14792;50.886;6.468;2023-07-28T15:28:03;0.85;;;0.50;;
27305;SDS011;14792;50.886;6.468;2023-07-28T15:31:06;0.60;;;0.60;;
27305;SDS011;14792;50.886;6.468;2023-07-28T15:34:07;0.95;;;0.40;;
27305;SDS011;14792;50.886;6.468;2023-07-28T15:37:09;1.12;;;0.60;;
27305;SDS011;14792;50.886;6.468;2023-07-28T15:40:11;0.78;;;0.75;;
27305;SDS011;14792;50.886;6.468;2023-07-28T15:43:12;0.60;;;0.60;;
27305;SDS011;14792;50.886;6.468;2023-07-28T15:46:14;1.15;;;0.60;;
27305;SDS011;14792;50.886;6.468;2023-07-28T15:49:16;2.35;;;0.90;;
27305;SDS011;14792;50.886;6.468;2023-07-28T15:52:17;1.50;;;1.10;;
27305;SDS011;14792;50.886;6.468;2023-07-28T15:55:19;3.92;;;0.70;;
27305;SDS011;14792;50.886;6.468;2023-07-28T16:01:22;1.75;;;0.70;;
27305;SDS011;14792;50.886;6.468;2023-07-28T16:04:23;1.25;;;0.72;;
27305;SDS011;14792;50.886;6.468;2023-07-28T16:07:25;0.70;;;0.70;;
27305;SDS011;14792;50.886;6.468;2023-07-28T16:10:27;0.45;;;0.45;;
27305;SDS011;14792;50.886;6.468;2023-07-28T16:13:28;1.32;;;0.35;;
27305;SDS011;14792;50.886;6.468;2023-07-28T16:16:30;3.40;;;0.80;;
27305;SDS011;14792;50.886;6.468;2023-07-28T16:19:31;0.45;;;0.45;;
27305;SDS011;14792;50.886;6.468;2023-07-28T16:22:33;1.07;;;0.70;;
27305;SDS011;14792;50.886;6.468;2023-07-28T16:25:36;0.75;;;0.60;;
27305;SDS011;14792;50.886;6.468;2023-07-28T16:28:38;0.72;;;0.50;;
27305;SDS011;14792;50.886;6.468;2023-07-28T16:31:39;1.10;;;0.60;;
27305;SDS011;14792;50.886;6.468;2023-07-28T16:34:41;2.35;;;0.80;;
27305;SDS011;14792;50.886;6.468;2023-07-28T16:37:43;2.22;;;0.70;;
27305;SDS011;14792;50.886;6.468;2023-07-28T16:40:44;0.68;;;0.60;;
27305;SDS011;14792;50.886;6.468;2023-07-28T16:43:46;0.90;;;0.57;;
27305;SDS011;14792;50.886;6.468;2023-07-28T16:46:47;1.05;;;0.88;;
27305;SDS011;14792;50.886;6.468;2023-07-28T16:49:49;1.05;;;0.75;;
27305;SDS011;14792;50.886;6.468;2023-07-28T16:52:50;2.70;;;0.78;;
27305;SDS011;14792;50.886;6.468;2023-07-28T16:55:52;3.33;;;0.80;;
27305;SDS011;14792;50.886;6.468;2023-07-28T16:58:54;0.95;;;0.70;;
27305;SDS011;14792;50.886;6.468;2023-07-28T17:01:55;1.80;;;0.93;;
27305;SDS011;14792;50.886;6.468;2023-07-28T17:04:57;2.33;;;0.90;;
27305;SDS011;14792;50.886;6.468;2023-07-28T17:07:59;1.20;;;0.90;;
27305;SDS011;14792;50.886;6.468;2023-07-28T17:11:00;1.60;;;1.07;;
27305;SDS011;14792;50.886;6.468;2023-07-28T17:14:02;1.20;;;0.95;;
27305;SDS011;14792;50.886;6.468;2023-07-28T17:17:06;1.02;;;0.80;;
27305;SDS011;14792;50.886;6.468;2023-07-28T17:20:07;1.27;;;0.88;;
27305;SDS011;14792;50.886;6.468;2023-07-28T17:23:09;2.60;;;0.90;;
27305;SDS011;14792;50.886;6.468;2023-07-28T17:26:11;3.15;;;0.70;;
27305;SDS011;14792;50.886;6.468;2023-07-28T17:29:13;1.72;;;0.82;;
27305;SDS011;14792;50.886;6.468;2023-07-28T17:32:14;1.37;;;0.93;;
27305;SDS011;14792;50.886;6.468;2023-07-28T17:35:15;1.25;;;1.07;;
27305;SDS011;14792;50.886;6.468;2023-07-28T17:38:17;1.75;;;0.80;;
27305;SDS011;14792;50.886;6.468;2023-07-28T17:41:18;2.65;;;1.50;;
27305;SDS011;14792;50.886;6.468;2023-07-28T17:44:20;2.95;;;1.55;;
27305;SDS011;14792;50.886;6.468;2023-07-28T17:47:22;3.87;;;1.20;;
27305;SDS011;14792;50.886;6.468;2023-07-28T17:50:23;1.17;;;0.93;;
27305;SDS011;14792;50.886;6.468;2023-07-28T17:53:25;1.77;;;1.00;;
27305;SDS011;14792;50.886;6.468;2023-07-28T17:56:26;2.22;;;0.90;;
27305;SDS011;14792;50.886;6.468;2023-07-28T17:59:28;1.98;;;0.90;;
27305;SDS011;14792;50.886;6.468;2023-07-28T18:02:30;1.20;;;1.10;;
27305;SDS011;14792;50.886;6.468;2023-07-28T18:05:31;1.55;;;1.07;;
27305;SDS011;14792;50.886;6.468;2023-07-28T18:08:33;1.80;;;0.90;;
27305;SDS011;14792;50.886;6.468;2023-07-28T18:11:36;4.03;;;1.00;;
27305;SDS011;14792;50.886;6.468;2023-07-28T18:14:38;2.30;;;1.25;;
27305;SDS011;14792;50.886;6.468;2023-07-28T18:17:40;2.72;;;1.30;;
27305;SDS011;14792;50.886;6.468;2023-07-28T18:20:41;1.20;;;0.88;;
27305;SDS011;14792;50.886;6.468;2023-07-28T18:23:43;1.37;;;1.00;;
27305;SDS011;14792;50.886;6.468;2023-07-28T18:26:45;1.85;;;1.20;;
27305;SDS011;14792;50.886;6.468;2023-07-28T18:29:46;2.17;;;1.12;;